createdAt,value
2023-02-03T00:00:16.611Z,3.00
2023-02-03T00:04:06.655Z,3.03
2023-02-03T00:07:32.336Z,3.05
2023-02-03T00:11:15.412Z,3.06
2023-02-03T00:15:07.932Z,3.07
2023-02-03T00:18:38.043Z,3.04
2023-02-03T00:22:24.914Z,3.03
2023-02-03T00:25:53.449Z,3.03
2023-02-03T00:29:22.879Z,3.05
2023-02-03T00:32:48.022Z,3.00
2023-02-03T00:36:26.960Z,2.95
2023-02-03T00:43:24.696Z,3.03
2023-02-03T00:46:58.440Z,2.97
2023-02-03T00:50:24.686Z,3.00
2023-02-03T00:53:37.317Z,2.99
2023-02-03T00:57:02.541Z,2.96
2023-02-03T01:00:24.526Z,2.94
2023-02-03T01:04:01.246Z,2.92
2023-02-03T01:07:28.201Z,2.91
2023-02-03T01:11:37.421Z,2.93
2023-02-03T01:15:14.230Z,2.98
2023-02-03T01:18:42.318Z,3.03
2023-02-03T01:22:04.040Z,3.05
2023-02-03T01:25:31.617Z,3.07
2023-02-03T01:28:45.677Z,3.06
2023-02-03T01:32:09.128Z,3.05
2023-02-03T01:35:29.050Z,3.06
2023-02-03T01:42:15.032Z,3.00
2023-02-03T01:45:35.161Z,2.88
2023-02-03T01:49:11.713Z,2.76
2023-02-03T01:52:28.450Z,2.64
2023-02-03T01:55:44.656Z,2.52
2023-02-03T01:59:00.928Z,2.40
2023-02-03T02:02:25.941Z,2.35
2023-02-03T02:06:09.099Z,2.35
2023-02-03T02:09:41.714Z,2.37
2023-02-03T02:12:36.848Z,2.40
2023-02-03T02:16:31.074Z,2.43
2023-02-03T02:24:44.530Z,2.50
2023-02-03T02:28:34.423Z,2.41
2023-02-03T02:32:23.656Z,2.36
2023-02-03T02:35:59.968Z,2.32
2023-02-03T02:39:51.325Z,2.29
2023-02-03T02:43:43.432Z,2.30
2023-02-03T02:47:29.429Z,2.29
2023-02-03T02:50:56.244Z,2.33
2023-02-03T02:54:19.493Z,2.38
2023-02-03T02:57:45.449Z,2.40
2023-02-03T03:04:58.769Z,2.42
2023-02-03T03:08:20.861Z,2.36
2023-02-03T03:12:06.686Z,2.37
2023-02-03T03:15:41.650Z,2.44
2023-02-03T03:19:42.361Z,2.50
2023-02-03T03:23:15.665Z,2.56
2023-02-03T03:26:41.007Z,2.58
2023-02-03T03:30:18.643Z,2.59
2023-02-03T03:33:38.465Z,2.59
2023-02-03T03:37:13.411Z,2.65
2023-02-03T03:48:43.586Z,2.77
2023-02-03T03:52:17.401Z,2.73
2023-02-03T03:56:01.257Z,2.76
2023-02-03T03:59:43.457Z,2.78
2023-02-03T04:02:49.010Z,2.81
2023-02-03T04:06:14.727Z,2.84
2023-02-03T04:09:38.204Z,2.86
2023-02-03T04:19:57.844Z,2.86
2023-02-03T04:34:05.481Z,2.79
2023-02-03T04:37:21.962Z,2.70
2023-02-03T04:40:57.071Z,2.65
2023-02-03T04:44:06.702Z,2.60
2023-02-03T04:47:44.919Z,2.60
2023-02-03T04:51:10.853Z,2.62
2023-02-03T04:54:36.785Z,2.64
2023-02-03T04:58:06.612Z,2.67
2023-02-03T05:04:57.756Z,2.76
2023-02-03T05:08:40.983Z,2.68
2023-02-03T05:12:17.721Z,2.71
2023-02-03T05:15:54.534Z,2.70
2023-02-03T05:19:28.663Z,2.75
2023-02-03T05:37:09.213Z,3.00
2023-02-03T05:40:56.003Z,2.98
2023-02-03T06:29:39.457Z,3.48
2023-02-03T06:32:57.206Z,3.51
2023-02-03T06:40:23.253Z,3.50
2023-02-03T06:43:45.055Z,3.44
2023-02-03T06:47:52.457Z,3.39
2023-02-03T06:51:27.628Z,3.31
2023-02-03T06:54:40.924Z,3.30
2023-02-03T06:58:12.135Z,3.35
2023-02-03T07:01:31.107Z,3.45
2023-02-03T07:09:01.827Z,3.63
2023-02-03T07:12:22.320Z,3.68
2023-02-03T07:15:48.151Z,3.72
2023-02-03T07:19:30.661Z,3.76
2023-02-03T07:26:34.736Z,3.94
2023-02-03T07:30:21.856Z,3.97
2023-02-03T07:34:04.265Z,4.08
2023-02-03T07:37:36.740Z,4.14
2023-02-03T07:41:03.883Z,4.22
2023-02-03T07:44:27.441Z,4.25
2023-02-03T07:47:56.229Z,4.25
2023-02-03T07:51:20.341Z,4.27
2023-02-03T07:55:08.718Z,4.26
2023-02-03T08:20:34.177Z,4.44
2023-02-03T08:23:58.561Z,4.46
2023-02-03T08:31:08.475Z,4.34
2023-02-03T08:35:32.349Z,4.24
2023-02-03T08:39:15.087Z,4.29
2023-02-03T08:42:40.265Z,4.39
2023-02-03T09:01:46.675Z,4.48
2023-02-03T09:04:57.251Z,4.50
2023-02-03T09:08:39.394Z,4.46
2023-02-03T09:12:33.948Z,4.48
2023-02-03T09:16:04.119Z,4.52
2023-02-03T09:19:52.860Z,4.52
2023-02-03T09:23:08.171Z,4.45
2023-02-03T09:26:38.016Z,4.48
2023-02-03T09:45:41.084Z,4.60
2023-02-03T10:01:08.732Z,4.79
2023-02-03T10:04:45.767Z,4.74
2023-02-03T10:08:55.123Z,4.78
2023-02-03T10:20:41.780Z,4.36
2023-02-03T10:28:04.536Z,4.17
2023-02-03T10:31:26.949Z,4.11
2023-02-03T10:34:49.873Z,4.21
2023-02-03T10:38:09.722Z,4.31
2023-02-03T10:41:23.703Z,4.35
2023-02-03T10:52:26.051Z,4.46
2023-02-03T10:55:51.659Z,4.46
2023-02-03T10:59:25.743Z,4.44
2023-02-03T11:02:48.406Z,4.45
2023-02-03T11:06:35.600Z,4.38
2023-02-03T11:17:56.426Z,4.36
2023-02-03T11:28:16.387Z,4.49
2023-02-03T11:32:41.191Z,4.53
2023-02-03T11:40:00.080Z,4.70
2023-02-03T11:43:53.301Z,4.68
2023-02-03T11:47:35.342Z,4.65
2023-02-03T11:51:04.237Z,4.66
2023-02-03T11:55:04.376Z,4.68
2023-02-03T12:05:58.721Z,4.78
2023-02-03T12:09:28.343Z,4.79
2023-02-03T12:13:02.061Z,4.70
2023-02-03T12:16:58.993Z,4.62
2023-02-03T12:20:52.244Z,4.44
2023-02-03T12:24:49.103Z,4.36
2023-02-03T12:28:46.781Z,4.32
2023-02-03T12:32:46.542Z,4.41
2023-02-03T12:36:36.810Z,4.45
2023-02-03T12:40:09.708Z,4.48
2023-02-03T12:44:17.239Z,4.42
2023-02-03T12:48:10.688Z,4.39
2023-02-03T12:52:02.929Z,4.43
2023-02-03T12:59:59.179Z,4.33
2023-02-03T13:03:55.615Z,4.19
2023-02-03T13:07:47.608Z,4.20
2023-02-03T13:14:53.646Z,4.15
2023-02-03T13:25:41.990Z,4.10
2023-02-03T13:38:39.769Z,4.02
2023-02-03T13:49:08.033Z,3.87
2023-02-03T13:52:26.218Z,3.74
2023-02-03T13:59:49.112Z,3.75
2023-02-03T14:03:39.426Z,3.71
2023-02-03T14:15:44.677Z,3.49
2023-02-03T14:19:16.411Z,3.40
2023-02-03T14:22:56.209Z,3.34
2023-02-03T14:26:15.192Z,3.27
2023-02-03T14:29:56.848Z,3.28
2023-02-03T14:33:26.529Z,3.28
2023-02-03T14:37:04.360Z,3.22
2023-02-03T14:40:37.546Z,3.11
2023-02-03T14:44:30.297Z,2.91
2023-02-03T14:52:01.604Z,2.70
2023-02-03T14:55:39.147Z,2.60
2023-02-03T14:59:11.991Z,2.52
2023-02-03T15:02:27.622Z,2.46
2023-02-03T15:05:51.614Z,2.39
2023-02-03T15:09:14.154Z,2.33
2023-02-03T15:13:08.110Z,2.31
2023-02-03T15:16:45.644Z,2.34
2023-02-03T15:27:38.039Z,2.76
2023-02-03T15:31:06.884Z,2.77
2023-02-03T15:35:06.590Z,2.86
2023-02-03T15:42:10.609Z,3.06
2023-02-03T15:45:44.314Z,3.12
2023-02-03T15:49:34.192Z,3.11
2023-02-03T15:52:41.819Z,3.04
2023-02-03T15:56:12.927Z,2.95
2023-02-03T16:03:32.911Z,2.84
2023-02-03T16:06:55.009Z,2.88
2023-02-03T16:10:42.184Z,2.85
2023-02-03T16:14:04.299Z,2.81
2023-02-03T16:35:25.485Z,2.54
2023-02-03T16:39:12.287Z,2.45
2023-02-03T16:42:54.245Z,2.37
2023-02-03T16:46:49.359Z,2.29
2023-02-03T16:50:37.262Z,2.24
2023-02-03T16:53:36.201Z,2.23
2023-02-03T16:57:11.239Z,2.23
2023-02-03T17:00:52.003Z,2.21
2023-02-03T17:04:17.857Z,2.20
2023-02-03T17:11:36.937Z,2.23
2023-02-03T17:14:58.473Z,2.20
2023-02-03T17:22:02.920Z,2.22
2023-02-03T17:25:26.717Z,2.30
2023-02-03T17:28:53.236Z,2.34
2023-02-03T17:36:42.973Z,2.45
2023-02-03T17:58:29.753Z,2.57
2023-02-03T18:01:55.513Z,2.45
2023-02-03T18:05:31.173Z,2.37
2023-02-03T18:09:01.219Z,2.39
2023-02-03T18:12:14.606Z,2.41
2023-02-03T18:15:37.481Z,2.48
2023-02-03T18:19:01.847Z,2.50
2023-02-03T18:22:31.173Z,2.42
2023-02-03T18:25:50.956Z,2.32
2023-02-03T18:29:30.785Z,2.27
2023-02-03T18:33:09.503Z,2.23
2023-02-03T18:36:46.085Z,2.20
2023-02-03T18:40:25.049Z,2.15
2023-02-03T18:43:45.154Z,2.14
2023-02-03T18:46:57.846Z,2.15
2023-02-03T18:50:29.861Z,2.16
2023-02-03T18:53:57.935Z,2.17
2023-02-03T19:00:43.847Z,2.18
2023-02-03T19:04:13.472Z,2.14
2023-02-03T19:07:29.643Z,2.10
2023-02-03T19:14:57.974Z,2.03
2023-02-03T19:18:27.780Z,2.04
2023-02-03T19:22:11.960Z,1.99
2023-02-03T19:25:31.640Z,1.95
2023-02-03T19:28:48.690Z,1.99
2023-02-03T19:32:30.698Z,2.11
2023-02-03T19:36:22.097Z,2.18
2023-02-03T19:53:53.818Z,2.66
2023-02-03T20:00:29.702Z,2.70
2023-02-03T20:03:55.334Z,2.61
2023-02-03T20:07:37.435Z,2.60
2023-02-03T20:11:04.263Z,2.61
2023-02-03T20:14:34.208Z,2.64
2023-02-03T20:17:53.156Z,2.66
2023-02-03T20:21:16.486Z,2.67
2023-02-03T20:24:34.822Z,2.65
2023-02-03T20:28:19.869Z,2.62
2023-02-03T20:31:42.900Z,2.60
2023-02-03T20:34:56.299Z,2.60
2023-02-03T20:42:02.782Z,2.51
2023-02-03T20:45:32.670Z,2.49
2023-02-03T20:48:53.338Z,2.52
2023-02-03T20:52:27.130Z,2.53
2023-02-03T20:55:56.971Z,2.51
2023-02-03T20:59:20.749Z,2.47
2023-02-03T21:03:08.547Z,2.47
2023-02-03T21:09:51.960Z,2.51
2023-02-03T21:13:09.753Z,2.47
2023-02-03T21:16:50.572Z,2.43
2023-02-03T21:20:19.681Z,2.38
2023-02-03T21:26:57.847Z,2.40
2023-02-03T21:30:31.759Z,2.47
2023-02-03T21:33:59.298Z,2.47
2023-02-03T21:37:41.432Z,2.44
2023-02-03T21:45:12.073Z,2.44
2023-02-03T21:48:52.855Z,2.39
2023-02-03T21:52:27.007Z,2.38
2023-02-03T21:56:05.809Z,2.37
2023-02-03T22:00:01.155Z,2.38
2023-02-03T22:03:53.294Z,2.43
2023-02-03T22:07:22.476Z,2.46
2023-02-03T22:10:52.603Z,2.49
2023-02-03T22:14:38.073Z,2.52
2023-02-03T22:17:58.925Z,2.54
2023-02-03T22:21:22.795Z,2.54
